sensor_id;sensor_type;location;lat;lon;timestamp;temperature;humidity
66710;DHT22;53624;0.000;0.000;2022-07-06T00:00:17;17.90;94.40
66710;DHT22;53624;0.000;0.000;2022-07-06T00:02:44;18.20;93.40
66710;DHT22;53624;0.000;0.000;2022-07-06T00:05:12;17.70;94.20
66710;DHT22;53624;0.000;0.000;2022-07-06T00:07:39;17.40;93.80
66710;DHT22;53624;0.000;0.000;2022-07-06T00:10:07;17.40;93.50
66710;DHT22;53624;0.000;0.000;2022-07-06T00:12:34;17.50;94.10
66710;DHT22;53624;0.000;0.000;2022-07-06T00:15:02;17.20;94.80
66710;DHT22;53624;0.000;0.000;2022-07-06T00:17:31;17.50;94.90
66710;DHT22;53624;0.000;0.000;2022-07-06T00:19:58;17.90;94.10
66710;DHT22;53624;0.000;0.000;2022-07-06T00:22:26;17.90;93.70
66710;DHT22;53624;0.000;0.000;2022-07-06T00:24:53;18.00;93.90
66710;DHT22;53624;0.000;0.000;2022-07-06T00:27:21;18.10;93.40
66710;DHT22;53624;0.000;0.000;2022-07-06T00:29:48;18.30;93.10
66710;DHT22;53624;0.000;0.000;2022-07-06T00:32:16;18.40;93.10
66710;DHT22;53624;0.000;0.000;2022-07-06T00:34:44;18.50;93.10
66710;DHT22;53624;0.000;0.000;2022-07-06T00:37:12;18.40;93.70
66710;DHT22;53624;0.000;0.000;2022-07-06T00:39:41;18.10;94.80
66710;DHT22;53624;0.000;0.000;2022-07-06T00:42:08;17.60;96.20
66710;DHT22;53624;0.000;0.000;2022-07-06T00:44:36;17.50;96.20
66710;DHT22;53624;0.000;0.000;2022-07-06T00:47:03;17.60;95.90
66710;DHT22;53624;0.000;0.000;2022-07-06T00:49:31;17.10;96.40
66710;DHT22;53624;0.000;0.000;2022-07-06T00:52:26;17.00;97.20
66710;DHT22;53624;0.000;0.000;2022-07-06T00:54:53;17.30;96.30
66710;DHT22;53624;0.000;0.000;2022-07-06T00:57:21;17.30;95.90
66710;DHT22;53624;0.000;0.000;2022-07-06T00:59:48;17.10;96.70
66710;DHT22;53624;0.000;0.000;2022-07-06T01:02:16;16.90;96.80
66710;DHT22;53624;0.000;0.000;2022-07-06T01:04:44;16.90;96.80
66710;DHT22;53624;0.000;0.000;2022-07-06T01:07:11;17.10;96.30
66710;DHT22;53624;0.000;0.000;2022-07-06T01:09:40;17.00;96.10
66710;DHT22;53624;0.000;0.000;2022-07-06T01:12:08;17.20;95.40
66710;DHT22;53624;0.000;0.000;2022-07-06T01:14:36;17.10;95.50
66710;DHT22;53624;0.000;0.000;2022-07-06T01:17:03;17.50;95.40
66710;DHT22;53624;0.000;0.000;2022-07-06T01:19:31;17.80;94.90
66710;DHT22;53624;0.000;0.000;2022-07-06T01:22:00;17.80;94.90
66710;DHT22;53624;0.000;0.000;2022-07-06T01:24:28;17.70;95.50
66710;DHT22;53624;0.000;0.000;2022-07-06T01:26:55;17.60;95.90
66710;DHT22;53624;0.000;0.000;2022-07-06T01:29:23;17.40;95.70
66710;DHT22;53624;0.000;0.000;2022-07-06T01:31:51;17.30;96.40
66710;DHT22;53624;0.000;0.000;2022-07-06T01:34:18;17.30;96.00
66710;DHT22;53624;0.000;0.000;2022-07-06T01:36:46;17.30;96.00
66710;DHT22;53624;0.000;0.000;2022-07-06T01:39:15;17.20;96.20
66710;DHT22;53624;0.000;0.000;2022-07-06T01:41:42;17.30;96.00
66710;DHT22;53624;0.000;0.000;2022-07-06T01:44:10;17.30;96.50
66710;DHT22;53624;0.000;0.000;2022-07-06T01:46:38;17.30;97.30
66710;DHT22;53624;0.000;0.000;2022-07-06T01:49:08;17.10;98.00
66710;DHT22;53624;0.000;0.000;2022-07-06T01:51:36;17.10;98.30
66710;DHT22;53624;0.000;0.000;2022-07-06T01:54:03;17.20;98.10
66710;DHT22;53624;0.000;0.000;2022-07-06T01:56:32;17.20;97.60
66710;DHT22;53624;0.000;0.000;2022-07-06T01:59:03;17.40;96.70
66710;DHT22;53624;0.000;0.000;2022-07-06T02:01:31;17.50;96.00
66710;DHT22;53624;0.000;0.000;2022-07-06T02:03:58;17.50;95.10
66710;DHT22;53624;0.000;0.000;2022-07-06T02:06:27;17.40;95.30
66710;DHT22;53624;0.000;0.000;2022-07-06T02:08:54;17.60;95.10
66710;DHT22;53624;0.000;0.000;2022-07-06T02:11:22;17.60;95.00
66710;DHT22;53624;0.000;0.000;2022-07-06T02:13:51;17.70;94.60
66710;DHT22;53624;0.000;0.000;2022-07-06T02:16:18;17.70;94.00
66710;DHT22;53624;0.000;0.000;2022-07-06T02:18:46;17.70;94.00
66710;DHT22;53624;0.000;0.000;2022-07-06T02:21:14;17.70;94.60
66710;DHT22;53624;0.000;0.000;2022-07-06T02:23:41;17.50;95.20
66710;DHT22;53624;0.000;0.000;2022-07-06T02:26:09;17.20;95.80
66710;DHT22;53624;0.000;0.000;2022-07-06T02:28:37;16.70;97.50
66710;DHT22;53624;0.000;0.000;2022-07-06T02:31:07;16.90;97.00
66710;DHT22;53624;0.000;0.000;2022-07-06T02:33:35;17.10;96.40
66710;DHT22;53624;0.000;0.000;2022-07-06T02:36:03;17.20;96.00
66710;DHT22;53624;0.000;0.000;2022-07-06T02:38:31;16.90;96.00
66710;DHT22;53624;0.000;0.000;2022-07-06T02:40:58;16.60;97.60
66710;DHT22;53624;0.000;0.000;2022-07-06T02:43:26;16.70;97.00
66710;DHT22;53624;0.000;0.000;2022-07-06T02:45:54;16.60;97.20
66710;DHT22;53624;0.000;0.000;2022-07-06T02:48:23;16.80;96.80
66710;DHT22;53624;0.000;0.000;2022-07-06T02:50:51;16.90;96.20
66710;DHT22;53624;0.000;0.000;2022-07-06T02:53:19;16.90;96.40
66710;DHT22;53624;0.000;0.000;2022-07-06T02:55:50;16.90;96.70
66710;DHT22;53624;0.000;0.000;2022-07-06T02:58:18;16.90;96.90
66710;DHT22;53624;0.000;0.000;2022-07-06T03:00:46;16.80;96.80
66710;DHT22;53624;0.000;0.000;2022-07-06T03:03:14;16.50;97.70
66710;DHT22;53624;0.000;0.000;2022-07-06T03:05:43;16.30;98.40
66710;DHT22;53624;0.000;0.000;2022-07-06T03:08:13;16.20;98.90
66710;DHT22;53624;0.000;0.000;2022-07-06T03:10:40;16.50;98.20
66710;DHT22;53624;0.000;0.000;2022-07-06T03:13:08;16.70;97.70
66710;DHT22;53624;0.000;0.000;2022-07-06T03:15:36;16.70;97.40
66710;DHT22;53624;0.000;0.000;2022-07-06T03:18:04;16.60;97.60
66710;DHT22;53624;0.000;0.000;2022-07-06T03:20:31;16.60;97.70
66710;DHT22;53624;0.000;0.000;2022-07-06T03:23:00;16.70;97.80
66710;DHT22;53624;0.000;0.000;2022-07-06T03:25:29;16.60;98.10
66710;DHT22;53624;0.000;0.000;2022-07-06T03:27:56;16.40;98.60
66710;DHT22;53624;0.000;0.000;2022-07-06T03:30:24;16.10;99.10
66710;DHT22;53624;0.000;0.000;2022-07-06T03:32:54;15.80;99.90
66710;DHT22;53624;0.000;0.000;2022-07-06T03:35:22;15.80;99.90
66710;DHT22;53624;0.000;0.000;2022-07-06T03:37:51;15.60;99.90
66710;DHT22;53624;0.000;0.000;2022-07-06T03:40:23;15.60;99.90
66710;DHT22;53624;0.000;0.000;2022-07-06T03:42:51;15.80;99.90
66710;DHT22;53624;0.000;0.000;2022-07-06T03:45:19;16.20;99.80
66710;DHT22;53624;0.000;0.000;2022-07-06T03:47:47;16.40;99.00
66710;DHT22;53624;0.000;0.000;2022-07-06T03:50:15;16.30;99.60
66710;DHT22;53624;0.000;0.000;2022-07-06T03:52:42;16.10;99.90
66710;DHT22;53624;0.000;0.000;2022-07-06T03:55:11;15.90;99.90
66710;DHT22;53624;0.000;0.000;2022-07-06T03:57:44;16.20;99.90
66710;DHT22;53624;0.000;0.000;2022-07-06T04:00:15;16.30;99.90
66710;DHT22;53624;0.000;0.000;2022-07-06T04:02:48;16.40;99.80
66710;DHT22;53624;0.000;0.000;2022-07-06T04:05:21;16.50;99.20
66710;DHT22;53624;0.000;0.000;2022-07-06T04:07:51;16.50;99.20
66710;DHT22;53624;0.000;0.000;2022-07-06T04:10:22;16.50;99.50
66710;DHT22;53624;0.000;0.000;2022-07-06T04:12:52;15.70;99.90
66710;DHT22;53624;0.000;0.000;2022-07-06T04:15:19;15.90;99.90
66710;DHT22;53624;0.000;0.000;2022-07-06T04:17:47;16.00;99.90
66710;DHT22;53624;0.000;0.000;2022-07-06T04:20:26;16.10;99.90
66710;DHT22;53624;0.000;0.000;2022-07-06T04:22:55;16.30;99.90
66710;DHT22;53624;0.000;0.000;2022-07-06T04:25:25;16.60;99.50
66710;DHT22;53624;0.000;0.000;2022-07-06T04:27:56;16.60;99.90
66710;DHT22;53624;0.000;0.000;2022-07-06T04:30:23;16.50;99.90
66710;DHT22;53624;0.000;0.000;2022-07-06T04:32:51;16.40;99.90
66710;DHT22;53624;0.000;0.000;2022-07-06T04:35:18;16.50;99.90
66710;DHT22;53624;0.000;0.000;2022-07-06T04:37:47;16.50;99.90
66710;DHT22;53624;0.000;0.000;2022-07-06T04:40:17;16.50;99.90
66710;DHT22;53624;0.000;0.000;2022-07-06T04:42:46;16.40;99.90
66710;DHT22;53624;0.000;0.000;2022-07-06T04:45:15;16.50;99.70
66710;DHT22;53624;0.000;0.000;2022-07-06T04:47:43;16.50;99.90
66710;DHT22;53624;0.000;0.000;2022-07-06T04:50:12;16.20;99.90
66710;DHT22;53624;0.000;0.000;2022-07-06T04:52:41;16.30;99.90
66710;DHT22;53624;0.000;0.000;2022-07-06T04:55:09;16.10;99.90
66710;DHT22;53624;0.000;0.000;2022-07-06T04:57:37;16.20;99.90
66710;DHT22;53624;0.000;0.000;2022-07-06T05:00:05;16.50;99.90
66710;DHT22;53624;0.000;0.000;2022-07-06T05:02:35;16.50;99.90
66710;DHT22;53624;0.000;0.000;2022-07-06T05:05:03;16.60;99.90
66710;DHT22;53624;0.000;0.000;2022-07-06T05:07:31;16.00;99.90
66710;DHT22;53624;0.000;0.000;2022-07-06T05:10:00;16.30;99.90
66710;DHT22;53624;0.000;0.000;2022-07-06T05:12:30;16.50;99.90
66710;DHT22;53624;0.000;0.000;2022-07-06T05:14:58;16.40;99.90
66710;DHT22;53624;0.000;0.000;2022-07-06T05:17:26;16.60;99.90
66710;DHT22;53624;0.000;0.000;2022-07-06T05:19:56;16.70;99.90
66710;DHT22;53624;0.000;0.000;2022-07-06T05:22:24;16.50;99.90
66710;DHT22;53624;0.000;0.000;2022-07-06T05:24:52;16.60;99.90
66710;DHT22;53624;0.000;0.000;2022-07-06T05:27:20;16.80;99.90
66710;DHT22;53624;0.000;0.000;2022-07-06T05:29:48;16.90;99.90
66710;DHT22;53624;0.000;0.000;2022-07-06T05:32:17;17.20;99.90
66710;DHT22;53624;0.000;0.000;2022-07-06T05:34:45;17.40;99.90
66710;DHT22;53624;0.000;0.000;2022-07-06T05:37:15;17.50;99.90
66710;DHT22;53624;0.000;0.000;2022-07-06T05:39:43;17.60;99.90
66710;DHT22;53624;0.000;0.000;2022-07-06T05:42:14;17.70;99.90
66710;DHT22;53624;0.000;0.000;2022-07-06T05:44:43;17.90;99.80
66710;DHT22;53624;0.000;0.000;2022-07-06T05:47:12;17.90;99.90
66710;DHT22;53624;0.000;0.000;2022-07-06T05:49:58;18.00;99.80
66710;DHT22;53624;0.000;0.000;2022-07-06T05:52:56;18.20;98.90
66710;DHT22;53624;0.000;0.000;2022-07-06T05:55:24;18.40;98.90
66710;DHT22;53624;0.000;0.000;2022-07-06T05:57:53;18.40;99.10
66710;DHT22;53624;0.000;0.000;2022-07-06T06:00:23;18.70;98.40
66710;DHT22;53624;0.000;0.000;2022-07-06T06:02:55;18.90;97.80
66710;DHT22;53624;0.000;0.000;2022-07-06T06:05:23;19.20;97.50
66710;DHT22;53624;0.000;0.000;2022-07-06T06:07:54;19.90;95.90
66710;DHT22;53624;0.000;0.000;2022-07-06T06:10:26;20.80;94.30
66710;DHT22;53624;0.000;0.000;2022-07-06T06:12:57;20.90;94.10
66710;DHT22;53624;0.000;0.000;2022-07-06T06:15:25;21.40;93.90
66710;DHT22;53624;0.000;0.000;2022-07-06T06:17:53;21.80;92.80
66710;DHT22;53624;0.000;0.000;2022-07-06T06:20:21;22.00;92.10
66710;DHT22;53624;0.000;0.000;2022-07-06T06:22:49;22.10;92.10
66710;DHT22;53624;0.000;0.000;2022-07-06T06:25:17;22.10;91.80
66710;DHT22;53624;0.000;0.000;2022-07-06T06:27:46;22.20;91.60
66710;DHT22;53624;0.000;0.000;2022-07-06T06:30:14;22.40;92.30
66710;DHT22;53624;0.000;0.000;2022-07-06T06:32:41;22.60;91.40
66710;DHT22;53624;0.000;0.000;2022-07-06T06:35:09;22.80;90.80
66710;DHT22;53624;0.000;0.000;2022-07-06T06:37:36;23.10;90.60
66710;DHT22;53624;0.000;0.000;2022-07-06T06:40:04;23.20;90.20
66710;DHT22;53624;0.000;0.000;2022-07-06T06:42:34;23.40;91.30
66710;DHT22;53624;0.000;0.000;2022-07-06T06:45:07;23.70;90.90
66710;DHT22;53624;0.000;0.000;2022-07-06T06:47:35;24.00;90.50
66710;DHT22;53624;0.000;0.000;2022-07-06T06:50:03;24.40;89.40
66710;DHT22;53624;0.000;0.000;2022-07-06T06:52:30;24.50;86.40
66710;DHT22;53624;0.000;0.000;2022-07-06T06:54:58;24.50;88.30
66710;DHT22;53624;0.000;0.000;2022-07-06T06:57:25;24.90;87.60
66710;DHT22;53624;0.000;0.000;2022-07-06T06:59:54;25.00;87.70
66710;DHT22;53624;0.000;0.000;2022-07-06T07:02:25;25.00;86.80
66710;DHT22;53624;0.000;0.000;2022-07-06T07:04:52;25.30;83.20
66710;DHT22;53624;0.000;0.000;2022-07-06T07:07:20;25.60;84.60
66710;DHT22;53624;0.000;0.000;2022-07-06T07:09:47;25.20;82.10
66710;DHT22;53624;0.000;0.000;2022-07-06T07:12:15;25.40;82.20
66710;DHT22;53624;0.000;0.000;2022-07-06T07:14:43;25.70;83.30
66710;DHT22;53624;0.000;0.000;2022-07-06T07:17:10;26.00;82.10
66710;DHT22;53624;0.000;0.000;2022-07-06T07:19:39;26.30;82.50
66710;DHT22;53624;0.000;0.000;2022-07-06T07:22:07;26.60;82.00
66710;DHT22;53624;0.000;0.000;2022-07-06T07:24:34;26.70;82.20
66710;DHT22;53624;0.000;0.000;2022-07-06T07:27:02;26.50;81.40
66710;DHT22;53624;0.000;0.000;2022-07-06T07:29:31;26.00;81.00
66710;DHT22;53624;0.000;0.000;2022-07-06T07:31:58;26.10;81.40
66710;DHT22;53624;0.000;0.000;2022-07-06T07:34:26;26.50;80.20
66710;DHT22;53624;0.000;0.000;2022-07-06T07:36:55;25.90;79.20
66710;DHT22;53624;0.000;0.000;2022-07-06T07:39:22;26.40;78.90
66710;DHT22;53624;0.000;0.000;2022-07-06T07:41:50;26.90;78.70
66710;DHT22;53624;0.000;0.000;2022-07-06T07:44:17;26.90;77.10
66710;DHT22;53624;0.000;0.000;2022-07-06T07:46:45;27.00;78.10
66710;DHT22;53624;0.000;0.000;2022-07-06T07:49:12;27.50;77.20
66710;DHT22;53624;0.000;0.000;2022-07-06T07:51:40;28.00;76.60
66710;DHT22;53624;0.000;0.000;2022-07-06T07:54:10;28.30;75.50
66710;DHT22;53624;0.000;0.000;2022-07-06T07:56:37;28.10;74.70
66710;DHT22;53624;0.000;0.000;2022-07-06T07:59:06;28.50;75.40
66710;DHT22;53624;0.000;0.000;2022-07-06T08:01:35;28.90;72.30
66710;DHT22;53624;0.000;0.000;2022-07-06T08:04:03;28.80;72.80
66710;DHT22;53624;0.000;0.000;2022-07-06T08:06:30;29.00;73.20
66710;DHT22;53624;0.000;0.000;2022-07-06T08:08:58;29.30;71.80
66710;DHT22;53624;0.000;0.000;2022-07-06T08:11:27;29.10;70.20
66710;DHT22;53624;0.000;0.000;2022-07-06T08:13:54;28.40;72.10
66710;DHT22;53624;0.000;0.000;2022-07-06T08:16:22;28.60;72.70
66710;DHT22;53624;0.000;0.000;2022-07-06T08:18:49;28.40;71.30
66710;DHT22;53624;0.000;0.000;2022-07-06T08:21:17;28.70;72.70
66710;DHT22;53624;0.000;0.000;2022-07-06T08:23:45;29.30;72.10
66710;DHT22;53624;0.000;0.000;2022-07-06T08:26:12;29.40;70.60
66710;DHT22;53624;0.000;0.000;2022-07-06T08:28:42;29.70;72.50
66710;DHT22;53624;0.000;0.000;2022-07-06T08:31:09;29.10;75.40
66710;DHT22;53624;0.000;0.000;2022-07-06T08:33:37;28.50;72.80
66710;DHT22;53624;0.000;0.000;2022-07-06T08:36:05;28.10;74.70
66710;DHT22;53624;0.000;0.000;2022-07-06T08:38:33;27.80;75.60
66710;DHT22;53624;0.000;0.000;2022-07-06T08:41:00;27.70;74.70
66710;DHT22;53624;0.000;0.000;2022-07-06T08:43:28;27.90;78.10
66710;DHT22;53624;0.000;0.000;2022-07-06T08:45:57;28.00;77.30
66710;DHT22;53624;0.000;0.000;2022-07-06T08:48:25;28.10;76.50
66710;DHT22;53624;0.000;0.000;2022-07-06T08:50:54;28.10;76.60
66710;DHT22;53624;0.000;0.000;2022-07-06T08:53:22;27.80;73.30
66710;DHT22;53624;0.000;0.000;2022-07-06T08:55:50;27.60;76.90
66710;DHT22;53624;0.000;0.000;2022-07-06T08:58:18;27.80;78.70
66710;DHT22;53624;0.000;0.000;2022-07-06T09:00:45;28.10;73.60
66710;DHT22;53624;0.000;0.000;2022-07-06T09:03:14;27.90;78.10
66710;DHT22;53624;0.000;0.000;2022-07-06T09:05:42;28.10;74.40
66710;DHT22;53624;0.000;0.000;2022-07-06T09:08:12;28.20;75.50
66710;DHT22;53624;0.000;0.000;2022-07-06T09:10:39;28.40;78.80
66710;DHT22;53624;0.000;0.000;2022-07-06T09:13:07;28.40;76.30
66710;DHT22;53624;0.000;0.000;2022-07-06T09:15:36;28.60;77.20
66710;DHT22;53624;0.000;0.000;2022-07-06T09:18:04;28.70;74.40
66710;DHT22;53624;0.000;0.000;2022-07-06T09:20:33;28.60;71.80
66710;DHT22;53624;0.000;0.000;2022-07-06T09:23:01;28.60;74.70
66710;DHT22;53624;0.000;0.000;2022-07-06T09:25:30;28.70;74.30
66710;DHT22;53624;0.000;0.000;2022-07-06T09:27:57;28.80;74.70
66710;DHT22;53624;0.000;0.000;2022-07-06T09:30:26;28.80;74.90
66710;DHT22;53624;0.000;0.000;2022-07-06T09:32:54;28.60;70.80
66710;DHT22;53624;0.000;0.000;2022-07-06T09:35:22;28.70;78.80
66710;DHT22;53624;0.000;0.000;2022-07-06T09:38:04;28.90;75.90
66710;DHT22;53624;0.000;0.000;2022-07-06T09:40:32;29.00;74.50
66710;DHT22;53624;0.000;0.000;2022-07-06T09:43:07;29.00;74.00
66710;DHT22;53624;0.000;0.000;2022-07-06T09:45:35;28.80;76.80
66710;DHT22;53624;0.000;0.000;2022-07-06T09:48:08;28.90;74.00
66710;DHT22;53624;0.000;0.000;2022-07-06T09:50:40;27.80;73.30
66710;DHT22;53624;0.000;0.000;2022-07-06T09:53:09;28.00;74.80
66710;DHT22;53624;0.000;0.000;2022-07-06T09:55:37;27.90;73.70
66710;DHT22;53624;0.000;0.000;2022-07-06T09:58:04;27.30;73.00
66710;DHT22;53624;0.000;0.000;2022-07-06T10:00:32;27.40;76.20
66710;DHT22;53624;0.000;0.000;2022-07-06T10:03:00;28.00;73.40
66710;DHT22;53624;0.000;0.000;2022-07-06T10:05:28;28.40;71.40
66710;DHT22;53624;0.000;0.000;2022-07-06T10:07:57;28.60;79.10
66710;DHT22;53624;0.000;0.000;2022-07-06T10:10:27;28.80;72.60
66710;DHT22;53624;0.000;0.000;2022-07-06T10:12:55;28.40;72.60
66710;DHT22;53624;0.000;0.000;2022-07-06T10:15:24;28.20;75.10
66710;DHT22;53624;0.000;0.000;2022-07-06T10:17:52;28.60;78.60
66710;DHT22;53624;0.000;0.000;2022-07-06T10:20:20;28.70;73.40
66710;DHT22;53624;0.000;0.000;2022-07-06T10:22:48;28.60;72.10
66710;DHT22;53624;0.000;0.000;2022-07-06T10:25:16;28.50;72.70
66710;DHT22;53624;0.000;0.000;2022-07-06T10:27:47;28.50;72.80
66710;DHT22;53624;0.000;0.000;2022-07-06T10:30:15;28.70;76.10
66710;DHT22;53624;0.000;0.000;2022-07-06T10:32:43;28.60;73.30
66710;DHT22;53624;0.000;0.000;2022-07-06T10:35:12;28.80;72.90
66710;DHT22;53624;0.000;0.000;2022-07-06T10:37:40;28.90;71.80
66710;DHT22;53624;0.000;0.000;2022-07-06T10:40:16;28.60;72.10
66710;DHT22;53624;0.000;0.000;2022-07-06T10:43:02;28.70;73.00
66710;DHT22;53624;0.000;0.000;2022-07-06T10:48:20;28.40;76.30
66710;DHT22;53624;0.000;0.000;2022-07-06T10:50:49;28.90;73.80
66710;DHT22;53624;0.000;0.000;2022-07-06T10:53:17;29.00;74.20
66710;DHT22;53624;0.000;0.000;2022-07-06T10:55:48;29.00;74.00
66710;DHT22;53624;0.000;0.000;2022-07-06T10:58:41;29.10;72.20
66710;DHT22;53624;0.000;0.000;2022-07-06T11:01:13;28.90;73.10
66710;DHT22;53624;0.000;0.000;2022-07-06T11:03:44;28.80;73.20
66710;DHT22;53624;0.000;0.000;2022-07-06T11:06:15;28.70;78.00
66710;DHT22;53624;0.000;0.000;2022-07-06T11:08:47;28.60;73.60
66710;DHT22;53624;0.000;0.000;2022-07-06T11:11:16;28.40;72.40
66710;DHT22;53624;0.000;0.000;2022-07-06T11:13:48;28.40;74.20
66710;DHT22;53624;0.000;0.000;2022-07-06T11:16:16;28.60;75.50
66710;DHT22;53624;0.000;0.000;2022-07-06T11:18:48;28.70;77.00
66710;DHT22;53624;0.000;0.000;2022-07-06T11:21:20;28.70;71.40
66710;DHT22;53624;0.000;0.000;2022-07-06T11:23:48;28.90;74.40
66710;DHT22;53624;0.000;0.000;2022-07-06T11:26:16;28.70;72.70
66710;DHT22;53624;0.000;0.000;2022-07-06T11:28:45;28.70;73.30
66710;DHT22;53624;0.000;0.000;2022-07-06T11:31:15;28.90;74.30
66710;DHT22;53624;0.000;0.000;2022-07-06T11:33:44;28.90;71.60
66710;DHT22;53624;0.000;0.000;2022-07-06T11:36:15;28.80;70.10
66710;DHT22;53624;0.000;0.000;2022-07-06T11:38:43;28.80;71.20
66710;DHT22;53624;0.000;0.000;2022-07-06T11:41:12;28.80;71.30
66710;DHT22;53624;0.000;0.000;2022-07-06T11:43:40;29.00;72.90
66710;DHT22;53624;0.000;0.000;2022-07-06T11:46:22;28.80;71.80
66710;DHT22;53624;0.000;0.000;2022-07-06T11:48:50;28.90;73.70
66710;DHT22;53624;0.000;0.000;2022-07-06T11:51:18;29.00;72.40
66710;DHT22;53624;0.000;0.000;2022-07-06T11:53:46;28.90;70.60
66710;DHT22;53624;0.000;0.000;2022-07-06T11:56:14;29.00;74.00
66710;DHT22;53624;0.000;0.000;2022-07-06T11:58:42;29.00;73.60
66710;DHT22;53624;0.000;0.000;2022-07-06T12:01:13;29.00;72.90
66710;DHT22;53624;0.000;0.000;2022-07-06T12:03:42;28.80;71.50
66710;DHT22;53624;0.000;0.000;2022-07-06T12:06:14;29.00;71.70
66710;DHT22;53624;0.000;0.000;2022-07-06T12:08:43;28.80;70.70
66710;DHT22;53624;0.000;0.000;2022-07-06T12:11:16;28.80;73.10
66710;DHT22;53624;0.000;0.000;2022-07-06T12:13:44;28.90;70.50
66710;DHT22;53624;0.000;0.000;2022-07-06T12:16:11;28.80;72.70
66710;DHT22;53624;0.000;0.000;2022-07-06T12:18:39;28.90;72.10
66710;DHT22;53624;0.000;0.000;2022-07-06T12:21:09;29.00;71.20
66710;DHT22;53624;0.000;0.000;2022-07-06T12:23:40;29.00;72.60
66710;DHT22;53624;0.000;0.000;2022-07-06T12:26:08;28.70;70.20
66710;DHT22;53624;0.000;0.000;2022-07-06T12:28:36;28.40;69.60
66710;DHT22;53624;0.000;0.000;2022-07-06T12:31:03;28.40;70.80
66710;DHT22;53624;0.000;0.000;2022-07-06T12:33:31;28.50;70.70
66710;DHT22;53624;0.000;0.000;2022-07-06T12:36:10;28.80;72.60
66710;DHT22;53624;0.000;0.000;2022-07-06T12:38:43;28.80;70.80
66710;DHT22;53624;0.000;0.000;2022-07-06T12:41:11;28.70;70.30
66710;DHT22;53624;0.000;0.000;2022-07-06T12:43:59;28.70;71.30
66710;DHT22;53624;0.000;0.000;2022-07-06T12:46:27;28.60;69.90
66710;DHT22;53624;0.000;0.000;2022-07-06T12:48:55;28.70;70.20
66710;DHT22;53624;0.000;0.000;2022-07-06T12:51:24;28.90;73.30
66710;DHT22;53624;0.000;0.000;2022-07-06T12:53:53;29.00;71.60
66710;DHT22;53624;0.000;0.000;2022-07-06T12:56:20;28.90;72.10
66710;DHT22;53624;0.000;0.000;2022-07-06T12:58:55;28.90;71.30
66710;DHT22;53624;0.000;0.000;2022-07-06T13:01:23;28.80;70.40
66710;DHT22;53624;0.000;0.000;2022-07-06T13:03:54;28.80;69.40
66710;DHT22;53624;0.000;0.000;2022-07-06T13:06:33;28.90;70.00
66710;DHT22;53624;0.000;0.000;2022-07-06T13:09:03;28.80;70.10
66710;DHT22;53624;0.000;0.000;2022-07-06T13:11:30;28.90;70.80
66710;DHT22;53624;0.000;0.000;2022-07-06T13:13:59;28.80;71.90
66710;DHT22;53624;0.000;0.000;2022-07-06T13:16:26;29.00;72.40
66710;DHT22;53624;0.000;0.000;2022-07-06T13:19:00;29.10;70.10
66710;DHT22;53624;0.000;0.000;2022-07-06T13:21:27;29.00;71.60
66710;DHT22;53624;0.000;0.000;2022-07-06T13:23:56;29.00;70.60
66710;DHT22;53624;0.000;0.000;2022-07-06T13:26:26;29.00;70.50
66710;DHT22;53624;0.000;0.000;2022-07-06T13:28:53;29.00;70.30
66710;DHT22;53624;0.000;0.000;2022-07-06T13:31:21;29.20;70.40
66710;DHT22;53624;0.000;0.000;2022-07-06T13:33:48;29.20;71.80
66710;DHT22;53624;0.000;0.000;2022-07-06T13:36:16;28.90;68.80
66710;DHT22;53624;0.000;0.000;2022-07-06T13:38:44;28.80;70.10
66710;DHT22;53624;0.000;0.000;2022-07-06T13:41:13;28.90;70.20
66710;DHT22;53624;0.000;0.000;2022-07-06T13:43:40;29.00;72.20
66710;DHT22;53624;0.000;0.000;2022-07-06T13:46:08;29.20;69.30
66710;DHT22;53624;0.000;0.000;2022-07-06T13:48:36;28.80;68.70
66710;DHT22;53624;0.000;0.000;2022-07-06T13:51:04;28.80;67.40
66710;DHT22;53624;0.000;0.000;2022-07-06T13:53:31;28.70;68.30
66710;DHT22;53624;0.000;0.000;2022-07-06T13:55:59;28.60;66.00
66710;DHT22;53624;0.000;0.000;2022-07-06T13:58:28;28.70;68.00
66710;DHT22;53624;0.000;0.000;2022-07-06T14:00:55;28.70;67.50
66710;DHT22;53624;0.000;0.000;2022-07-06T14:03:23;28.90;68.60
66710;DHT22;53624;0.000;0.000;2022-07-06T14:05:55;29.00;68.80
66710;DHT22;53624;0.000;0.000;2022-07-06T14:08:23;29.00;66.50
66710;DHT22;53624;0.000;0.000;2022-07-06T14:10:51;28.90;67.40
66710;DHT22;53624;0.000;0.000;2022-07-06T14:13:19;28.80;65.40
66710;DHT22;53624;0.000;0.000;2022-07-06T14:15:48;28.80;67.30
66710;DHT22;53624;0.000;0.000;2022-07-06T14:18:15;28.80;68.60
66710;DHT22;53624;0.000;0.000;2022-07-06T14:20:44;28.40;67.20
66710;DHT22;53624;0.000;0.000;2022-07-06T14:23:12;28.50;66.60
66710;DHT22;53624;0.000;0.000;2022-07-06T14:25:40;28.30;66.50
66710;DHT22;53624;0.000;0.000;2022-07-06T14:28:09;28.20;67.70
66710;DHT22;53624;0.000;0.000;2022-07-06T14:30:37;28.60;71.40
66710;DHT22;53624;0.000;0.000;2022-07-06T14:33:06;28.50;68.70
66710;DHT22;53624;0.000;0.000;2022-07-06T14:35:34;28.60;67.60
66710;DHT22;53624;0.000;0.000;2022-07-06T14:38:02;28.50;68.90
66710;DHT22;53624;0.000;0.000;2022-07-06T14:40:30;28.60;67.60
66710;DHT22;53624;0.000;0.000;2022-07-06T14:42:58;28.60;68.60
66710;DHT22;53624;0.000;0.000;2022-07-06T14:45:25;28.50;69.00
66710;DHT22;53624;0.000;0.000;2022-07-06T14:47:53;28.20;66.70
66710;DHT22;53624;0.000;0.000;2022-07-06T14:50:22;28.00;68.00
66710;DHT22;53624;0.000;0.000;2022-07-06T14:52:50;27.70;68.30
66710;DHT22;53624;0.000;0.000;2022-07-06T14:55:18;27.70;68.20
66710;DHT22;53624;0.000;0.000;2022-07-06T14:57:46;27.90;69.00
66710;DHT22;53624;0.000;0.000;2022-07-06T15:00:14;28.10;69.40
66710;DHT22;53624;0.000;0.000;2022-07-06T15:02:42;28.20;68.10
66710;DHT22;53624;0.000;0.000;2022-07-06T15:05:09;28.10;65.90
66710;DHT22;53624;0.000;0.000;2022-07-06T15:07:39;28.10;69.30
66710;DHT22;53624;0.000;0.000;2022-07-06T15:10:06;28.10;68.10
66710;DHT22;53624;0.000;0.000;2022-07-06T15:12:34;28.20;69.10
66710;DHT22;53624;0.000;0.000;2022-07-06T15:15:02;28.30;68.20
66710;DHT22;53624;0.000;0.000;2022-07-06T15:17:29;28.30;68.00
66710;DHT22;53624;0.000;0.000;2022-07-06T15:19:57;27.90;67.60
66710;DHT22;53624;0.000;0.000;2022-07-06T15:22:25;27.90;69.00
66710;DHT22;53624;0.000;0.000;2022-07-06T15:24:54;28.10;71.00
66710;DHT22;53624;0.000;0.000;2022-07-06T15:27:21;28.10;70.40
66710;DHT22;53624;0.000;0.000;2022-07-06T15:29:49;28.20;70.30
66710;DHT22;53624;0.000;0.000;2022-07-06T15:32:17;28.00;69.80
66710;DHT22;53624;0.000;0.000;2022-07-06T15:34:44;28.10;68.30
66710;DHT22;53624;0.000;0.000;2022-07-06T15:37:12;28.20;69.50
66710;DHT22;53624;0.000;0.000;2022-07-06T15:39:39;28.00;67.60
66710;DHT22;53624;0.000;0.000;2022-07-06T15:42:08;28.10;67.10
66710;DHT22;53624;0.000;0.000;2022-07-06T15:44:35;28.00;66.00
66710;DHT22;53624;0.000;0.000;2022-07-06T15:47:04;27.80;66.60
66710;DHT22;53624;0.000;0.000;2022-07-06T15:49:32;27.90;66.90
66710;DHT22;53624;0.000;0.000;2022-07-06T15:52:00;27.80;67.60
66710;DHT22;53624;0.000;0.000;2022-07-06T15:54:28;27.60;66.50
66710;DHT22;53624;0.000;0.000;2022-07-06T15:56:55;27.70;67.40